Time;durP1;ratioP1;P1;durP2;ratioP2;P2;SDS_P1;SDS_P2;PMS_P1;PMS_P2;Temp;Humidity;BMP_temperature;BMP_pressure;BME280_temperature;BME280_humidity;BME280_pressure;Samples;Min_cycle;Max_cycle;Signal;HPM_P1;HPM_P2
2021/04/12 00:01:43;;;;;;;16.10;8.65;;;14.10;58.60;;;;;;5112136;27;20059;-64
2021/04/12 00:04:35;;;;;;;15.70;8.63;;;14.10;58.20;;;;;;5114937;27;20088;-64
2021/04/12 00:07:04;;;;;;;14.82;8.30;;;14.10;58.10;;;;;;5112937;27;20043;-64
2021/04/12 00:09:41;;;;;;;14.65;8.48;;;14.20;58.10;;;;;;5118684;27;20063;-63
2021/04/12 00:12:16;;;;;;;15.10;8.63;;;14.20;57.60;;;;;;5114027;27;20039;-63
2021/04/12 00:14:57;;;;;;;12.90;7.43;;;14.30;57.40;;;;;;5113925;27;20039;-63
2021/04/12 00:17:34;;;;;;;13.50;7.22;;;14.40;57.20;;;;;;5113148;27;20027;-63
2021/04/12 00:20:29;;;;;;;15.50;7.97;;;14.40;56.60;;;;;;5113989;27;20042;-63
2021/04/12 00:23:18;;;;;;;11.52;7.15;;;14.50;56.70;;;;;;5113618;27;20075;-63
2021/04/12 00:26:05;;;;;;;14.65;7.45;;;14.50;56.80;;;;;;5106348;27;20066;-63
2021/04/12 00:28:36;;;;;;;12.65;7.45;;;14.50;56.40;;;;;;5113653;27;20168;-62
2021/04/12 00:31:23;;;;;;;13.35;7.30;;;14.50;56.30;;;;;;5113336;27;20036;-62
2021/04/12 00:33:57;;;;;;;11.98;6.70;;;14.50;56.20;;;;;;5113542;27;20030;-63
2021/04/12 00:36:32;;;;;;;11.13;7.07;;;14.50;56.10;;;;;;5112807;27;20039;-63
2021/04/12 00:39:13;;;;;;;11.77;6.50;;;14.50;55.90;;;;;;5113635;27;20467;-63
2021/04/12 00:42:00;;;;;;;10.75;6.18;;;14.30;55.80;;;;;;5113394;27;20039;-63
2021/04/12 00:44:44;;;;;;;16.02;7.22;;;14.40;56.20;;;;;;5112770;27;20092;-63
2021/04/12 00:47:13;;;;;;;19.27;7.75;;;14.50;56.10;;;;;;5112727;27;20106;-63
2021/04/12 00:49:42;;;;;;;15.73;6.68;;;14.40;55.70;;;;;;5113328;27;20104;-63
2021/04/12 00:52:27;;;;;;;10.18;5.40;;;14.40;55.90;;;;;;5112441;27;20054;-63
2021/04/12 00:55:07;;;;;;;10.70;5.75;;;14.50;55.90;;;;;;5112705;27;20394;-63
2021/04/12 00:58:09;;;;;;;10.38;5.47;;;14.50;56.00;;;;;;5112561;27;20382;-63
2021/04/12 01:00:44;;;;;;;10.07;5.38;;;14.50;55.60;;;;;;5112895;27;20032;-63
2021/04/12 01:03:34;;;;;;;8.57;4.90;;;14.40;55.80;;;;;;5112918;27;20801;-63
2021/04/12 01:06:30;;;;;;;7.78;4.72;;;14.40;56.10;;;;;;5112464;27;20061;-63
2021/04/12 01:09:08;;;;;;;7.88;4.85;;;14.30;55.90;;;;;;5113343;27;20051;-63
2021/04/12 01:12:05;;;;;;;9.48;4.97;;;14.20;56.00;;;;;;5112240;27;20035;-63
2021/04/12 01:14:36;;;;;;;8.07;4.22;;;14.20;56.00;;;;;;5111440;27;20036;-63
2021/04/12 01:17:25;;;;;;;7.18;4.05;;;14.20;55.90;;;;;;5113067;27;20118;-63
2021/04/12 01:19:53;;;;;;;6.70;4.40;;;14.20;56.00;;;;;;5112789;27;20045;-62
2021/04/12 01:22:56;;;;;;;8.25;3.72;;;14.20;56.00;;;;;;5112426;27;20039;-63
2021/04/12 01:25:53;;;;;;;7.80;4.03;;;14.30;55.90;;;;;;5111557;27;20448;-62
2021/04/12 01:28:41;;;;;;;7.38;4.15;;;14.30;55.80;;;;;;5112682;27;20141;-63
2021/04/12 01:31:28;;;;;;;6.70;4.03;;;14.20;55.80;;;;;;5112227;27;20043;-63
2021/04/12 01:34:22;;;;;;;5.70;3.17;;;14.30;55.60;;;;;;5112750;27;20039;-63
2021/04/12 01:37:06;;;;;;;;;;;14.30;55.60;;;;;;5112215;27;20035;-63
2021/04/12 01:39:50;;;;;;;7.00;3.17;;;14.30;55.80;;;;;;5112338;27;19924;-63
2021/04/12 01:42:25;;;;;;;6.88;3.72;;;14.40;55.30;;;;;;5111485;27;20523;-63
2021/04/12 01:45:17;;;;;;;4.65;2.53;;;14.30;55.00;;;;;;5111586;27;20054;-63
2021/04/12 01:47:58;;;;;;;7.40;3.03;;;14.20;55.00;;;;;;5112395;27;20043;-62
2021/04/12 01:50:27;;;;;;;5.78;2.97;;;14.30;54.60;;;;;;5112460;27;20662;-63
2021/04/12 01:53:30;;;;;;;5.28;2.85;;;14.20;54.70;;;;;;5111427;27;20988;-63
2021/04/12 01:56:03;;;;;;;5.78;3.22;;;14.00;54.80;;;;;;5112080;27;20058;-63
2021/04/12 01:58:45;;;;;;;6.47;2.90;;;14.00;55.30;;;;;;5112653;27;20079;-63
2021/04/12 02:01:35;;;;;;;6.47;2.97;;;14.00;55.20;;;;;;5112433;27;20039;-63
2021/04/12 02:04:16;;;;;;;4.80;2.70;;;14.10;55.00;;;;;;5112054;27;20046;-63
2021/04/12 02:07:09;;;;;;;4.75;2.40;;;14.20;54.80;;;;;;5112527;27;20032;-64
2021/04/12 02:09:43;;;;;;;4.72;2.80;;;14.20;54.70;;;;;;5111503;27;20108;-64
2021/04/12 02:12:38;;;;;;;5.70;2.63;;;14.20;54.50;;;;;;5111623;27;20035;-64
2021/04/12 02:15:07;;;;;;;6.82;2.80;;;14.10;54.60;;;;;;5103805;27;20111;-64
2021/04/12 02:17:54;;;;;;;6.13;2.20;;;14.20;54.50;;;;;;5110904;27;20035;-65
2021/04/12 02:20:52;;;;;;;5.28;2.45;;;14.10;54.60;;;;;;5111388;27;20050;-64
2021/04/12 02:23:39;;;;;;;3.97;1.92;;;14.10;54.70;;;;;;5115949;27;20112;-64
2021/04/12 02:26:22;;;;;;;5.78;2.75;;;14.10;54.40;;;;;;5110698;27;20035;-63
2021/04/12 02:29:03;;;;;;;3.58;2.38;;;13.90;54.40;;;;;;5110355;27;20122;-63
2021/04/12 02:31:41;;;;;;;3.95;2.22;;;14.00;54.80;;;;;;5111595;27;20036;-64
2021/04/12 02:34:46;;;;;;;3.80;2.22;;;14.10;54.80;;;;;;5111014;27;20034;-64
2021/04/12 02:37:33;;;;;;;3.65;1.95;;;14.10;54.60;;;;;;5113980;27;20047;-63
2021/04/12 02:40:28;;;;;;;5.20;2.28;;;14.10;54.60;;;;;;5111724;27;20147;-64
2021/04/12 02:43:19;;;;;;;4.22;1.90;;;14.10;54.50;;;;;;5110280;27;20046;-65
2021/04/12 02:46:03;;;;;;;4.65;1.83;;;14.20;54.40;;;;;;5109627;27;20478;-63
2021/04/12 02:49:02;;;;;;;2.72;1.30;;;14.20;54.20;;;;;;5114248;27;20062;-64
2021/04/12 02:51:38;;;;;;;3.50;1.40;;;14.20;53.80;;;;;;5109489;27;20502;-64
2021/04/12 02:54:20;;;;;;;3.05;1.38;;;14.10;53.50;;;;;;5110031;27;20036;-65
2021/04/12 02:56:57;;;;;;;2.15;1.48;;;14.10;53.90;;;;;;5110478;27;20180;-64
2021/04/12 02:59:47;;;;;;;2.40;1.55;;;14.10;53.60;;;;;;5114645;27;20042;-64
2021/04/12 03:02:44;;;;;;;4.88;1.55;;;14.10;53.60;;;;;;5116169;27;20502;-64
2021/04/12 03:05:57;;;;;;;3.13;1.38;;;14.20;53.90;;;;;;5110427;27;20040;-64
2021/04/12 03:08:48;;;;;;;2.92;1.63;;;14.10;53.80;;;;;;5062171;28;20051;-64
2021/04/12 03:11:39;;;;;;;2.85;1.20;;;14.10;53.20;;;;;;5109610;27;20156;-64
2021/04/12 03:14:31;;;;;;;3.10;1.27;;;14.10;53.90;;;;;;5110373;27;20108;-64
2021/04/12 03:16:59;;;;;;;2.92;1.08;;;14.00;53.80;;;;;;5110451;27;20483;-64
2021/04/12 03:19:43;;;;;;;3.25;1.10;;;14.00;53.90;;;;;;5113956;27;20043;-64
2021/04/12 03:22:09;;;;;;;2.53;1.10;;;14.00;53.80;;;;;;5110342;27;20540;-64
2021/04/12 03:25:01;;;;;;;3.40;0.82;;;14.10;53.70;;;;;;5109694;27;20067;-64
2021/04/12 03:27:52;;;;;;;3.95;1.30;;;14.20;53.60;;;;;;5110026;27;20121;-64
2021/04/12 03:30:32;;;;;;;2.42;1.13;;;14.30;53.50;;;;;;5110171;27;20084;-63
2021/04/12 03:33:31;;;;;;;2.65;1.05;;;14.30;53.40;;;;;;5110163;27;20036;-63
2021/04/12 03:36:25;;;;;;;3.55;0.88;;;14.00;50.00;;;;;;5109968;27;20927;-63
2021/04/12 03:39:21;;;;;;;3.65;0.77;;;13.30;49.60;;;;;;5107823;27;20080;-63
2021/04/12 03:42:21;;;;;;;4.35;1.23;;;12.30;49.80;;;;;;5110732;28;20114;-63
2021/04/12 03:45:13;;;;;;;2.13;1.00;;;11.10;50.90;;;;;;5109854;28;20114;-63
2021/04/12 03:47:54;;;;;;;4.18;1.15;;;10.30;53.90;;;;;;5104750;28;20043;-62
2021/04/12 03:50:31;;;;;;;3.20;1.10;;;9.60;54.30;;;;;;5110433;28;20035;-63
2021/04/12 03:53:17;;;;;;;3.53;1.40;;;9.10;56.00;;;;;;5109623;28;20088;-63
2021/04/12 03:56:06;;;;;;;2.55;0.88;;;8.70;56.00;;;;;;5108321;28;20467;-62
2021/04/12 03:58:48;;;;;;;5.72;1.50;;;8.20;56.90;;;;;;5109341;28;20039;-63
2021/04/12 04:01:23;;;;;;;4.47;0.98;;;7.80;58.00;;;;;;5109224;28;20040;-62
2021/04/12 04:04:09;;;;;;;3.40;1.17;;;7.60;59.40;;;;;;5109695;28;20036;-63
2021/04/12 04:06:58;;;;;;;2.33;1.00;;;7.50;61.80;;;;;;5109591;27;20043;-62
2021/04/12 04:09:46;;;;;;;4.45;1.10;;;7.40;61.00;;;;;;5110101;27;20049;-62
2021/04/12 04:12:27;;;;;;;3.55;1.00;;;7.30;60.40;;;;;;5110378;28;20094;-63
2021/04/12 04:15:17;;;;;;;2.78;1.00;;;7.10;60.00;;;;;;5110204;28;20039;-62
2021/04/12 04:18:04;;;;;;;3.95;1.23;;;6.90;60.40;;;;;;5110969;27;20099;-62
2021/04/12 04:20:49;;;;;;;3.30;1.02;;;6.80;60.50;;;;;;5111052;28;20522;-62
2021/04/12 04:23:27;;;;;;;4.80;1.55;;;6.70;62.70;;;;;;5110352;27;20547;-62
2021/04/12 04:26:14;;;;;;;1.60;0.70;;;6.60;62.10;;;;;;5115413;28;20484;-63
2021/04/12 04:29:22;;;;;;;5.05;1.40;;;6.50;62.00;;;;;;5114267;28;20040;-63
2021/04/12 04:31:59;;;;;;;1.80;1.20;;;6.40;63.10;;;;;;5107913;27;20077;-63
2021/04/12 04:34:30;;;;;;;4.47;1.65;;;6.30;63.60;;;;;;5125140;27;20043;-63
2021/04/12 04:37:39;;;;;;;11.02;1.90;;;6.30;64.70;;;;;;5109267;27;20035;-63
2021/04/12 04:40:37;;;;;;;5.28;1.60;;;6.40;64.80;;;;;;5109229;28;20046;-62
2021/04/12 04:43:20;;;;;;;2.45;1.23;;;6.40;64.60;;;;;;5108710;27;20604;-62
2021/04/12 04:45:55;;;;;;;7.78;1.75;;;6.30;63.60;;;;;;5109515;28;20402;-62
2021/04/12 04:48:40;;;;;;;4.65;1.30;;;6.10;63.80;;;;;;5112611;27;20043;-62
2021/04/12 04:51:27;;;;;;;2.40;1.13;;;6.00;64.70;;;;;;5113629;27;20042;-63
2021/04/12 04:54:12;;;;;;;2.75;1.38;;;5.90;64.30;;;;;;5113831;27;20531;-62
2021/04/12 04:57:01;;;;;;;1.77;1.05;;;5.70;65.20;;;;;;5113283;27;20052;-62
2021/04/12 04:59:37;;;;;;;5.57;1.42;;;5.70;65.80;;;;;;5112028;27;20035;-62
2021/04/12 05:02:47;;;;;;;4.82;1.58;;;5.70;66.60;;;;;;5112877;27;20035;-62
2021/04/12 05:05:24;;;;;;;7.07;1.90;;;5.70;66.30;;;;;;5071196;27;20135;-62
2021/04/12 05:08:35;;;;;;;6.93;1.70;;;5.70;65.90;;;;;;5112912;27;20038;-63
2021/04/12 05:11:24;;;;;;;6.60;2.25;;;5.60;65.50;;;;;;5112864;27;20861;-63
2021/04/12 05:14:11;;;;;;;3.28;1.17;;;5.30;66.40;;;;;;5112406;27;20043;-62
2021/04/12 05:17:01;;;;;;;4.43;1.40;;;5.20;67.90;;;;;;5112413;27;20032;-63
2021/04/12 05:19:49;;;;;;;3.17;1.20;;;5.20;67.60;;;;;;5111825;27;20074;-63
2021/04/12 05:23:05;;;;;;;7.15;1.70;;;5.10;67.20;;;;;;5112277;27;20134;-62
2021/04/12 05:25:58;;;;;;;7.45;1.35;;;5.10;67.70;;;;;;5093409;27;20146;-62
2021/04/12 05:28:42;;;;;;;7.88;1.63;;;5.20;68.60;;;;;;5111915;27;20039;-62
2021/04/12 05:31:34;;;;;;;6.20;1.55;;;5.20;67.90;;;;;;5112034;27;20066;-62
2021/04/12 05:34:37;;;;;;;6.95;1.40;;;5.10;68.10;;;;;;5108066;27;20075;-62
2021/04/12 05:37:28;;;;;;;3.90;1.10;;;5.20;68.00;;;;;;5111871;27;20934;-63
2021/04/12 05:40:09;;;;;;;3.80;1.35;;;5.20;68.80;;;;;;5111351;27;20048;-63
2021/04/12 05:42:46;;;;;;;2.55;1.05;;;5.30;68.80;;;;;;5113052;27;20023;-63
2021/04/12 05:45:46;;;;;;;3.35;1.30;;;5.40;69.20;;;;;;5112687;27;20050;-63
2021/04/12 05:48:33;;;;;;;6.35;1.20;;;5.50;69.10;;;;;;5111894;27;20047;-63
2021/04/12 05:51:16;;;;;;;3.90;1.30;;;5.70;69.80;;;;;;5112444;27;20059;-60
2021/04/12 05:54:15;;;;;;;4.60;1.63;;;5.80;69.90;;;;;;5112171;27;20417;-59
2021/04/12 05:57:13;;;;;;;4.45;1.23;;;5.80;68.20;;;;;;5110997;27;20054;-60
2021/04/12 06:00:05;;;;;;;4.65;1.20;;;6.00;68.70;;;;;;5111348;27;20040;-60
2021/04/12 06:02:31;;;;;;;3.22;1.20;;;6.20;67.60;;;;;;5093115;27;20048;-60
2021/04/12 06:05:29;;;;;;;3.92;1.50;;;6.40;67.40;;;;;;5111260;27;20040;-60
2021/04/12 06:08:28;;;;;;;7.65;1.40;;;6.70;66.80;;;;;;5112711;27;20046;-59
2021/04/12 06:11:26;;;;;;;4.38;1.00;;;6.80;65.60;;;;;;5118297;27;20047;-61
2021/04/12 06:14:15;;;;;;;3.80;1.42;;;6.90;65.00;;;;;;5107770;27;20135;-61
2021/04/12 06:17:02;;;;;;;4.20;1.40;;;6.90;65.10;;;;;;5108198;27;20057;-60
2021/04/12 06:19:34;;;;;;;2.20;1.00;;;7.00;65.40;;;;;;5110546;27;20028;-61
2021/04/12 06:22:20;;;;;;;5.78;1.30;;;7.10;65.20;;;;;;5110076;27;20123;-61
2021/04/12 06:25:02;;;;;;;3.83;0.90;;;7.30;64.40;;;;;;5110585;27;20192;-61
2021/04/12 06:27:50;;;;;;;5.43;0.90;;;7.30;64.80;;;;;;5111289;27;20040;-61
2021/04/12 06:30:19;;;;;;;3.95;1.10;;;7.60;64.60;;;;;;5109731;27;20031;-61
2021/04/12 06:33:20;;;;;;;3.17;0.90;;;7.70;63.70;;;;;;5112011;27;20046;-61
2021/04/12 06:36:15;;;;;;;2.33;0.80;;;7.80;63.10;;;;;;5075850;27;20063;-62
2021/04/12 06:39:07;;;;;;;1.70;0.68;;;8.00;63.30;;;;;;5111756;27;20038;-62
2021/04/12 06:42:03;;;;;;;4.20;1.30;;;8.30;63.10;;;;;;5110226;27;20050;-62
2021/04/12 06:44:40;;;;;;;4.93;1.05;;;8.70;62.30;;;;;;5110268;27;20125;-62
2021/04/12 06:47:32;;;;;;;3.78;0.90;;;9.10;61.80;;;;;;5111357;27;20587;-62
2021/04/12 06:50:24;;;;;;;3.03;0.73;;;9.30;60.90;;;;;;5110823;27;20042;-62
2021/04/12 06:53:08;;;;;;;4.47;1.15;;;9.70;60.10;;;;;;5108812;27;20039;-62
2021/04/12 06:56:16;;;;;;;3.65;0.75;;;10.00;59.40;;;;;;5113187;27;20118;-62
2021/04/12 06:59:23;;;;;;;4.63;0.90;;;10.30;58.60;;;;;;5109961;27;20077;-62
2021/04/12 07:02:28;;;;;;;2.40;0.90;;;10.50;58.30;;;;;;5113590;27;20036;-62
2021/04/12 07:05:31;;;;;;;3.60;1.10;;;10.70;57.60;;;;;;5109965;27;20336;-61
2021/04/12 07:08:31;;;;;;;3.20;1.00;;;11.10;56.90;;;;;;5107991;27;20123;-62
2021/04/12 07:11:19;;;;;;;3.88;1.02;;;11.50;56.70;;;;;;5108098;27;20043;-61
2021/04/12 07:14:03;;;;;;;3.60;0.95;;;11.90;55.50;;;;;;5109443;27;20050;-61
2021/04/12 07:17:00;;;;;;;6.32;1.10;;;12.20;55.10;;;;;;5114319;27;20159;-62
2021/04/12 07:19:50;;;;;;;3.55;1.08;;;12.50;54.10;;;;;;5108968;27;20067;-64
2021/04/12 07:22:34;;;;;;;4.07;0.70;;;12.80;53.40;;;;;;5113992;27;20035;-62
2021/04/12 07:25:31;;;;;;;5.65;0.70;;;13.30;53.10;;;;;;5108498;27;20483;-61
2021/04/12 07:28:20;;;;;;;4.57;1.25;;;13.80;51.60;;;;;;5109011;27;20532;-62
2021/04/12 07:31:16;;;;;;;4.82;1.27;;;14.00;50.90;;;;;;5108099;27;20483;-62
2021/04/12 07:34:06;;;;;;;5.57;1.38;;;14.40;50.00;;;;;;5109332;27;20032;-62
2021/04/12 07:36:50;;;;;;;4.03;1.05;;;14.60;49.00;;;;;;5112344;27;20437;-62
2021/04/12 07:39:47;;;;;;;2.33;0.70;;;14.80;48.70;;;;;;5108621;27;20600;-63
2021/04/12 07:42:37;;;;;;;5.25;1.08;;;15.10;47.60;;;;;;5115834;27;20047;-63
2021/04/12 07:45:28;;;;;;;4.10;0.68;;;15.40;46.80;;;;;;5109908;27;20031;-64
2021/04/12 07:48:54;;;;;;;2.70;1.17;;;15.60;46.10;;;;;;5110312;28;20547;-64
2021/04/12 07:51:42;;;;;;;4.35;1.17;;;15.90;46.60;;;;;;5044055;28;20800;-64
2021/04/12 07:54:38;;;;;;;6.35;0.73;;;15.90;44.40;;;;;;5057489;28;20195;-62
2021/04/12 07:57:53;;;;;;;2.88;0.63;;;16.00;43.40;;;;;;5107883;27;20130;-63
2021/04/12 08:00:32;;;;;;;4.45;0.90;;;16.10;43.60;;;;;;5071743;27;20063;-64
2021/04/12 08:03:19;;;;;;;3.35;0.90;;;16.30;43.30;;;;;;5106383;27;20394;-62
2021/04/12 08:06:23;;;;;;;3.92;0.73;;;16.40;41.90;;;;;;5114821;27;20035;-62
2021/04/12 08:09:30;;;;;;;4.53;0.80;;;16.10;41.40;;;;;;5108890;27;20111;-61
2021/04/12 08:12:39;;;;;;;6.45;0.90;;;15.70;42.40;;;;;;5120937;27;20064;-61
2021/04/12 08:15:11;;;;;;;3.72;1.10;;;15.60;43.40;;;;;;5112967;27;20035;-61
2021/04/12 08:18:10;;;;;;;3.03;0.98;;;15.60;43.10;;;;;;5109412;27;20035;-62
2021/04/12 08:21:03;;;;;;;14.82;2.30;;;15.70;42.70;;;;;;5108768;27;20080;-62
2021/04/12 08:23:43;;;;;;;3.38;0.85;;;15.90;43.10;;;;;;5112307;27;20073;-61
2021/04/12 08:26:31;;;;;;;3.78;0.60;;;16.10;42.40;;;;;;5111522;27;20502;-61
2021/04/12 08:28:59;;;;;;;2.22;0.50;;;16.20;41.70;;;;;;5112173;27;20043;-61
2021/04/12 08:31:52;;;;;;;2.88;0.90;;;16.50;41.10;;;;;;5113995;27;20043;-61
2021/04/12 08:34:27;;;;;;;4.32;0.82;;;16.60;41.00;;;;;;5113947;27;20463;-61
2021/04/12 08:37:21;;;;;;;3.35;0.60;;;16.60;39.70;;;;;;5113091;27;20035;-60
2021/04/12 08:40:00;;;;;;;2.63;0.90;;;16.40;38.40;;;;;;5112569;27;20071;-66
2021/04/12 08:42:38;;;;;;;5.00;0.73;;;16.30;39.30;;;;;;5118771;27;20104;-63
2021/04/12 08:45:51;;;;;;;2.95;0.57;;;16.30;39.00;;;;;;5112994;27;20043;-65
2021/04/12 08:48:50;;;;;;;3.78;1.48;;;16.40;39.20;;;;;;5111767;27;20051;-65
2021/04/12 08:52:00;;;;;;;3.80;0.70;;;16.40;38.50;;;;;;5112274;27;20508;-64
2021/04/12 08:54:57;;;;;;;5.82;1.02;;;16.40;38.90;;;;;;5102570;27;20096;-64
2021/04/12 08:57:41;;;;;;;2.70;0.80;;;16.40;38.40;;;;;;5114010;27;20035;-64
2021/04/12 09:00:35;;;;;;;2.78;0.70;;;16.50;38.80;;;;;;5113372;27;20047;-64
2021/04/12 09:03:39;;;;;;;3.85;0.70;;;16.80;38.80;;;;;;5112656;27;20054;-63
2021/04/12 09:06:08;;;;;;;3.10;0.60;;;16.80;38.20;;;;;;5114792;27;20036;-67
2021/04/12 09:09:13;;;;;;;4.05;0.85;;;16.70;37.90;;;;;;5117192;27;20050;-67
2021/04/12 09:12:00;;;;;;;2.40;0.50;;;16.40;37.60;;;;;;5092727;27;20055;-67
2021/04/12 09:14:28;;;;;;;7.22;1.20;;;15.60;37.50;;;;;;5112498;27;20032;-67
2021/04/12 09:17:44;;;;;;;2.80;0.75;;;15.20;38.70;;;;;;5111864;27;20059;-67
2021/04/12 09:20:47;;;;;;;2.38;0.55;;;15.30;39.40;;;;;;5101851;27;20055;-67
2021/04/12 09:23:33;;;;;;;3.67;0.77;;;15.30;39.10;;;;;;5111689;27;20079;-67
2021/04/12 09:26:17;;;;;;;2.00;0.57;;;15.20;39.80;;;;;;5110911;27;20047;-67
2021/04/12 09:28:59;;;;;;;2.40;0.85;;;15.10;39.90;;;;;;5111621;27;20115;-67
2021/04/12 09:31:44;;;;;;;2.92;0.70;;;15.20;40.00;;;;;;5109795;27;20035;-67
2021/04/12 09:34:29;;;;;;;4.10;0.70;;;15.00;39.60;;;;;;5110164;27;20108;-67
2021/04/12 09:37:16;;;;;;;1.85;0.68;;;14.70;39.10;;;;;;5111723;27;20084;-67
2021/04/12 09:40:36;;;;;;;2.72;0.68;;;14.30;38.70;;;;;;5111432;27;20035;-67
2021/04/12 09:43:27;;;;;;;3.03;0.63;;;13.80;39.30;;;;;;5071139;27;20551;-67
2021/04/12 09:46:10;;;;;;;3.58;0.60;;;13.40;40.20;;;;;;5111570;27;20040;-67
2021/04/12 09:48:39;;;;;;;;;;;13.00;40.30;;;;;;5111597;27;20545;-67
2021/04/12 09:51:29;;;;;;;2.80;0.52;;;13.00;41.70;;;;;;5117933;27;19972;-67
2021/04/12 09:54:21;;;;;;;5.75;0.77;;;13.40;42.10;;;;;;5112039;27;20104;-67
2021/04/12 09:56:52;;;;;;;3.65;1.00;;;13.70;42.60;;;;;;5111622;27;20046;-66
2021/04/12 09:59:42;;;;;;;3.00;0.73;;;13.70;42.50;;;;;;5111839;27;20095;-67
2021/04/12 10:02:30;;;;;;;2.03;0.73;;;13.60;42.90;;;;;;5115672;27;20036;-68
2021/04/12 10:05:21;;;;;;;6.97;0.98;;;13.70;43.00;;;;;;5111228;27;20089;-67
2021/04/12 10:07:55;;;;;;;5.43;0.70;;;13.60;42.50;;;;;;5110900;27;20493;-67
2021/04/12 10:10:27;;;;;;;2.97;0.70;;;13.30;43.00;;;;;;5111585;27;20092;-67
2021/04/12 10:12:58;;;;;;;3.15;0.98;;;13.30;43.60;;;;;;5113655;27;20047;-67
2021/04/12 10:15:35;;;;;;;3.55;1.25;;;13.40;43.60;;;;;;5109849;27;20027;-63
2021/04/12 10:18:32;;;;;;;5.88;1.00;;;13.40;43.80;;;;;;5110182;27;20042;-63
2021/04/12 10:21:35;;;;;;;3.75;1.17;;;13.60;44.00;;;;;;5111405;27;20035;-63
2021/04/12 10:24:13;;;;;;;5.07;1.33;;;13.60;44.20;;;;;;5111683;27;20055;-64
2021/04/12 10:26:51;;;;;;;4.40;1.60;;;13.50;43.70;;;;;;5111999;27;20054;-62
2021/04/12 10:29:44;;;;;;;3.28;0.93;;;13.40;43.70;;;;;;5111053;27;20050;-62
2021/04/12 10:32:13;;;;;;;6.03;1.07;;;13.10;44.00;;;;;;5110879;27;20032;-62
2021/04/12 10:34:46;;;;;;;4.13;1.30;;;12.70;44.90;;;;;;5111114;27;20950;-62
2021/04/12 10:37:25;;;;;;;5.85;1.27;;;12.50;45.20;;;;;;5110749;27;20027;-63
2021/04/12 10:40:03;;;;;;;6.88;1.10;;;12.40;45.70;;;;;;5111265;27;20108;-63
2021/04/12 10:42:55;;;;;;;2.20;0.68;;;12.60;47.50;;;;;;5110944;27;20043;-63
2021/04/12 10:45:26;;;;;;;3.22;0.90;;;13.00;47.10;;;;;;5110560;27;20059;-63
2021/04/12 10:47:59;;;;;;;4.53;0.75;;;13.10;46.90;;;;;;5109991;27;20042;-63
2021/04/12 10:50:30;;;;;;;7.20;1.13;;;13.20;45.50;;;;;;5113289;27;20039;-63
2021/04/12 10:53:34;;;;;;;2.33;0.60;;;12.90;45.30;;;;;;5111252;27;20042;-63
2021/04/12 10:56:08;;;;;;;4.38;1.60;;;12.70;44.60;;;;;;5116625;27;20388;-63
2021/04/12 10:59:11;;;;;;;5.47;0.98;;;12.40;44.90;;;;;;5114193;27;20051;-64
2021/04/12 11:01:48;;;;;;;3.03;1.00;;;12.10;44.80;;;;;;5109974;27;20074;-63
2021/04/12 11:04:52;;;;;;;3.13;1.05;;;11.80;46.00;;;;;;5113903;27;20028;-63
2021/04/12 11:07:27;;;;;;;;;;;11.60;47.10;;;;;;5116960;27;20118;-63
2021/04/12 11:10:01;;;;;;;1.52;0.93;;;11.50;47.10;;;;;;5110021;27;19919;-63
2021/04/12 11:12:26;;;;;;;3.40;0.70;;;11.40;47.30;;;;;;5109720;27;20520;-64
2021/04/12 11:15:07;;;;;;;4.18;1.13;;;11.30;47.80;;;;;;5110088;27;20132;-63
2021/04/12 11:17:50;;;;;;;3.05;0.88;;;11.10;49.10;;;;;;5110285;27;20066;-63
2021/04/12 11:20:27;;;;;;;4.13;0.95;;;10.80;50.10;;;;;;5114892;27;20042;-63
2021/04/12 11:22:58;;;;;;;4.60;0.80;;;10.50;51.10;;;;;;5110812;27;20031;-64
2021/04/12 11:25:49;;;;;;;6.65;2.38;;;10.40;52.00;;;;;;5109118;27;20169;-64
2021/04/12 11:28:46;;;;;;;5.88;0.85;;;10.50;52.80;;;;;;5108491;27;20039;-64
2021/04/12 11:31:27;;;;;;;3.50;0.60;;;10.60;52.10;;;;;;5110291;27;20035;-65
2021/04/12 11:34:08;;;;;;;4.28;0.95;;;10.80;52.20;;;;;;5115445;27;20036;-64
2021/04/12 11:36:41;;;;;;;3.80;0.88;;;10.90;51.80;;;;;;5110014;27;20347;-64
2021/04/12 11:39:14;;;;;;;3.33;0.82;;;11.10;52.30;;;;;;5107700;27;20062;-63
2021/04/12 11:41:43;;;;;;;3.40;0.60;;;11.60;52.00;;;;;;5115615;27;20104;-64
2021/04/12 11:44:21;;;;;;;3.08;0.57;;;11.80;50.90;;;;;;5108919;27;20081;-63
2021/04/12 11:47:11;;;;;;;2.47;0.60;;;12.00;50.00;;;;;;5112298;27;20053;-63
2021/04/12 11:49:49;;;;;;;4.82;1.08;;;11.90;49.60;;;;;;5109234;27;20756;-63
2021/04/12 11:52:34;;;;;;;3.63;0.70;;;11.70;49.30;;;;;;5109516;27;20047;-63
2021/04/12 11:55:14;;;;;;;6.03;0.70;;;11.40;49.10;;;;;;5113224;27;20043;-64
2021/04/12 11:57:46;;;;;;;3.40;0.70;;;11.20;50.60;;;;;;5110715;27;20035;-63
2021/04/12 12:00:23;;;;;;;3.00;0.77;;;11.00;51.10;;;;;;5112348;27;20036;-63
2021/04/12 12:03:19;;;;;;;3.17;1.20;;;10.80;51.50;;;;;;5112493;27;20475;-63
2021/04/12 12:06:21;;;;;;;3.80;0.60;;;10.60;51.80;;;;;;5114253;27;20085;-63
2021/04/12 12:09:13;;;;;;;2.38;0.65;;;10.50;52.20;;;;;;5114091;27;20413;-63
2021/04/12 12:11:48;;;;;;;5.65;0.80;;;10.30;52.70;;;;;;5095542;27;20048;-63
2021/04/12 12:14:35;;;;;;;5.00;1.00;;;10.30;53.30;;;;;;5112693;27;20040;-64
2021/04/12 12:17:05;;;;;;;3.25;0.57;;;10.30;53.80;;;;;;5119820;27;20573;-63
2021/04/12 12:19:50;;;;;;;4.47;0.90;;;10.30;54.20;;;;;;5113972;27;20126;-63
2021/04/12 12:22:26;;;;;;;2.83;0.70;;;10.20;54.10;;;;;;5112314;27;20506;-64
2021/04/12 12:25:23;;;;;;;5.15;0.90;;;9.90;54.40;;;;;;5118031;27;20083;-64
2021/04/12 12:28:06;;;;;;;8.68;1.20;;;9.60;55.30;;;;;;5113704;27;20039;-64
2021/04/12 12:30:37;;;;;;;1.25;0.70;;;9.70;56.10;;;;;;5113396;27;20050;-65
2021/04/12 12:33:03;;;;;;;1.65;0.60;;;9.90;56.60;;;;;;5113273;27;20055;-64
2021/04/12 12:35:57;;;;;;;1.35;0.50;;;10.30;56.40;;;;;;5113556;27;20031;-64
2021/04/12 12:38:44;;;;;;;1.23;0.30;;;10.70;55.10;;;;;;5113314;27;20047;-64
2021/04/12 12:41:19;;;;;;;3.42;0.75;;;11.00;55.10;;;;;;5112965;27;20482;-63
2021/04/12 12:43:46;;;;;;;3.17;0.52;;;11.40;54.70;;;;;;5116694;27;20096;-64
2021/04/12 12:46:24;;;;;;;2.88;0.50;;;11.60;53.90;;;;;;5119941;27;20052;-64
2021/04/12 12:48:52;;;;;;;1.98;0.57;;;11.70;53.50;;;;;;5118645;27;20086;-64
2021/04/12 12:51:26;;;;;;;1.40;0.47;;;11.70;52.70;;;;;;5113642;27;20046;-65
2021/04/12 12:54:11;;;;;;;2.53;0.70;;;11.50;52.30;;;;;;5113378;27;20120;-65
2021/04/12 12:56:40;;;;;;;3.08;1.05;;;11.40;52.40;;;;;;5113198;27;20057;-64
2021/04/12 12:59:20;;;;;;;3.20;0.70;;;11.30;53.10;;;;;;5113599;27;20035;-64
2021/04/12 13:01:47;;;;;;;4.45;0.50;;;11.10;53.80;;;;;;5113528;27;20041;-67
2021/04/12 13:04:23;;;;;;;3.47;0.70;;;10.90;54.20;;;;;;5113135;27;20454;-68
2021/04/12 13:06:51;;;;;;;3.25;0.50;;;10.80;54.50;;;;;;5113286;27;20040;-68
2021/04/12 13:09:35;;;;;;;2.72;0.80;;;10.70;55.00;;;;;;5112151;27;20047;-68
2021/04/12 13:12:04;;;;;;;3.17;0.70;;;10.50;55.30;;;;;;5113038;27;20554;-68
2021/04/12 13:14:36;;;;;;;4.20;0.85;;;10.30;56.00;;;;;;5116206;27;20035;-68
2021/04/12 13:17:19;;;;;;;3.35;0.90;;;10.20;56.50;;;;;;5113534;27;20100;-67
2021/04/12 13:19:51;;;;;;;1.88;0.50;;;10.10;57.10;;;;;;5112217;27;20081;-68
2021/04/12 13:22:30;;;;;;;1.33;0.60;;;10.00;57.60;;;;;;5112349;27;20096;-68
2021/04/12 13:25:14;;;;;;;3.30;0.55;;;10.00;58.20;;;;;;5115219;27;20075;-67
2021/04/12 13:27:41;;;;;;;1.90;0.63;;;10.00;58.50;;;;;;5112484;27;20126;-67
2021/04/12 13:30:10;;;;;;;3.55;0.70;;;9.80;58.30;;;;;;5113000;27;20453;-68
2021/04/12 13:32:47;;;;;;;2.08;0.60;;;9.80;58.60;;;;;;5113062;27;20038;-67
2021/04/12 13:35:20;;;;;;;2.47;0.70;;;9.80;58.90;;;;;;5112152;27;20110;-68
2021/04/12 13:37:46;;;;;;;;;;;9.80;57.90;;;;;;5112667;27;20038;-67
2021/04/12 13:40:31;;;;;;;2.78;0.60;;;9.60;58.00;;;;;;5112814;27;19923;-67
2021/04/12 13:43:03;;;;;;;7.03;1.02;;;9.70;58.20;;;;;;5111048;27;20044;-67
2021/04/12 13:45:36;;;;;;;2.00;0.75;;;9.90;58.10;;;;;;5118599;27;20482;-67
2021/04/12 13:48:10;;;;;;;3.60;0.38;;;10.20;58.10;;;;;;5112090;27;20028;-67
2021/04/12 13:50:58;;;;;;;1.13;0.45;;;10.30;54.20;;;;;;5112671;27;20035;-66
2021/04/12 13:53:26;;;;;;;4.82;0.50;;;10.20;51.80;;;;;;5115407;27;20055;-66
2021/04/12 13:56:12;;;;;;;2.20;0.57;;;10.20;52.20;;;;;;5112026;27;20057;-66
2021/04/12 13:58:48;;;;;;;1.38;0.40;;;10.40;51.60;;;;;;5111570;27;20063;-67
2021/04/12 14:01:24;;;;;;;1.77;0.40;;;10.50;51.80;;;;;;5109601;27;20059;-67
2021/04/12 14:03:59;;;;;;;3.10;0.40;;;10.70;51.10;;;;;;5111815;27;20043;-67
2021/04/12 14:06:34;;;;;;;1.67;0.57;;;11.00;50.80;;;;;;5109803;27;20031;-65
2021/04/12 14:09:14;;;;;;;4.00;0.50;;;11.10;50.40;;;;;;5111345;27;20043;-67
2021/04/12 14:11:56;;;;;;;3.53;0.60;;;11.00;50.00;;;;;;5110743;27;20040;-67
2021/04/12 14:14:26;;;;;;;1.80;0.30;;;11.00;49.50;;;;;;5110747;27;20585;-67
2021/04/12 14:17:17;;;;;;;1.42;0.68;;;10.90;49.80;;;;;;5111953;27;20043;-67
2021/04/12 14:19:50;;;;;;;3.17;0.60;;;11.00;49.50;;;;;;5109351;27;20092;-67
2021/04/12 14:22:35;;;;;;;2.25;0.30;;;10.90;49.10;;;;;;5111306;27;20028;-67
2021/04/12 14:25:34;;;;;;;3.63;0.40;;;10.90;48.50;;;;;;5110164;27;20108;-66